createdAt,value
2023-06-10T00:00:13.738Z,101769.11
2023-06-10T00:03:02.360Z,101772.21
2023-06-10T00:05:33.148Z,101775.98
2023-06-10T00:08:02.971Z,101780.45
2023-06-10T00:10:31.076Z,101782.02
2023-06-10T00:12:59.336Z,101786.89
2023-06-10T00:15:27.467Z,101779.41
2023-06-10T00:17:56.330Z,101779.65
2023-06-10T00:20:24.915Z,101783.02
2023-06-10T00:22:53.464Z,101784.33
2023-06-10T00:25:21.719Z,101783.57
2023-06-10T00:27:49.976Z,101781.20
2023-06-10T00:30:18.237Z,101778.04
2023-06-10T00:32:46.456Z,101779.27
2023-06-10T00:35:14.705Z,101782.67
2023-06-10T00:37:42.862Z,101788.17
2023-06-10T00:40:12.047Z,101785.79
2023-06-10T00:42:41.020Z,101786.98
2023-06-10T00:45:09.890Z,101784.95
2023-06-10T00:47:38.839Z,101784.98
2023-06-10T00:50:08.313Z,101790.58
2023-06-10T00:52:36.834Z,101793.55
2023-06-10T00:55:05.416Z,101795.76
2023-06-10T00:57:33.835Z,101795.70
2023-06-10T01:00:02.169Z,101801.92
2023-06-10T01:02:30.803Z,101801.27
2023-06-10T01:05:03.042Z,101801.63
2023-06-10T01:08:12.095Z,101809.12
2023-06-10T01:11:00.648Z,101813.97
2023-06-10T01:13:30.318Z,101818.34
2023-06-10T01:16:00.569Z,101814.02
2023-06-10T01:18:33.008Z,101814.98
2023-06-10T01:21:01.247Z,101804.08
2023-06-10T01:23:29.702Z,101818.84
2023-06-10T01:26:10.297Z,101822.84
2023-06-10T01:28:56.002Z,101826.61
2023-06-10T01:31:37.625Z,101826.12
2023-06-10T01:34:12.167Z,101830.31
2023-06-10T01:36:42.568Z,101833.44
2023-06-10T01:39:12.537Z,101835.44
2023-06-10T01:41:41.674Z,101840.89
2023-06-10T01:44:10.791Z,101838.69
2023-06-10T01:46:41.553Z,101843.61
2023-06-10T01:49:10.053Z,101843.75
2023-06-10T01:51:38.203Z,101843.27
2023-06-10T01:54:07.327Z,101846.46
2023-06-10T01:56:35.632Z,101851.97
2023-06-10T01:59:04.015Z,101853.66
2023-06-10T02:01:32.401Z,101853.52
2023-06-10T02:04:00.725Z,101856.38
2023-06-10T02:06:28.986Z,101857.17
2023-06-10T02:08:57.220Z,101861.08
2023-06-10T02:11:25.889Z,101866.75
2023-06-10T02:13:54.225Z,101866.45
2023-06-10T02:16:22.817Z,101878.17
2023-06-10T02:18:51.140Z,101881.36
2023-06-10T02:21:19.479Z,101866.35
2023-06-10T02:23:47.670Z,101874.72
2023-06-10T02:26:16.184Z,101886.48
2023-06-10T02:28:45.069Z,101894.85
2023-06-10T02:31:14.854Z,101895.66
2023-06-10T02:33:43.575Z,101903.63
2023-06-10T02:36:16.644Z,101901.17
2023-06-10T02:38:44.884Z,101909.15
2023-06-10T02:41:13.081Z,101914.31
2023-06-10T02:43:42.547Z,101920.02
2023-06-10T02:46:11.562Z,101925.77
2023-06-10T02:48:47.375Z,101930.16
2023-06-10T02:51:21.984Z,101933.02
2023-06-10T02:53:52.333Z,101940.54
2023-06-10T02:56:21.225Z,101944.92
2023-06-10T02:58:50.059Z,101949.06
2023-06-10T03:01:20.088Z,101950.77
2023-06-10T03:03:57.796Z,101952.73
2023-06-10T03:06:26.383Z,101944.56
2023-06-10T03:08:56.353Z,101948.51
2023-06-10T03:11:24.617Z,101953.55
2023-06-10T03:13:54.889Z,101955.88
2023-06-10T03:16:24.205Z,101954.93
2023-06-10T03:18:53.308Z,101952.21
2023-06-10T03:21:21.790Z,101952.60
2023-06-10T03:23:50.330Z,101947.59
2023-06-10T03:26:18.719Z,101946.55
2023-06-10T03:28:47.604Z,101943.23
2023-06-10T03:31:18.040Z,101943.53
2023-06-10T03:33:46.492Z,101941.46
2023-06-10T03:36:14.825Z,101947.34
2023-06-10T03:38:42.925Z,101952.73
2023-06-10T03:41:11.578Z,101956.18
2023-06-10T03:43:41.831Z,101954.28
2023-06-10T03:46:10.735Z,101951.05
2023-06-10T03:48:40.776Z,101949.52
2023-06-10T03:51:08.969Z,101949.89
2023-06-10T03:53:37.132Z,101953.37
2023-06-10T03:56:05.634Z,101955.66
2023-06-10T03:58:33.895Z,101963.00
2023-06-10T04:01:02.160Z,101965.35
2023-06-10T04:03:34.413Z,101964.48
2023-06-10T04:06:03.798Z,101961.92
2023-06-10T04:08:34.034Z,101962.92
2023-06-10T04:11:02.254Z,101960.70
2023-06-10T04:13:30.465Z,101962.34
2023-06-10T04:16:00.629Z,101963.48
2023-06-10T04:18:29.549Z,101970.57
2023-06-10T04:21:00.180Z,101975.78
2023-06-10T04:23:28.397Z,101977.52
2023-06-10T04:25:56.532Z,101966.95
2023-06-10T04:28:25.466Z,101985.75
2023-06-10T04:30:53.634Z,101988.71
2023-06-10T04:33:21.809Z,101993.98
2023-06-10T04:35:51.529Z,101996.30
2023-06-10T04:38:20.235Z,102000.73
2023-06-10T04:40:48.515Z,102003.02
2023-06-10T04:43:17.413Z,102005.58
2023-06-10T04:45:47.101Z,102001.98
2023-06-10T04:48:15.393Z,102004.31
2023-06-10T04:50:43.588Z,102006.77
2023-06-10T04:53:12.316Z,102010.06
2023-06-10T04:55:41.778Z,102012.95
2023-06-10T04:58:09.923Z,102014.34
2023-06-10T05:00:38.070Z,102023.89
2023-06-10T05:03:06.626Z,102011.79
2023-06-10T05:05:34.876Z,102026.06
2023-06-10T05:08:03.636Z,102028.95
2023-06-10T05:10:33.004Z,102028.41
2023-06-10T05:13:01.166Z,102029.35
2023-06-10T05:15:29.313Z,102034.02
2023-06-10T05:18:00.262Z,102036.91
2023-06-10T05:20:29.709Z,102042.14
2023-06-10T05:22:57.888Z,102043.18
2023-06-10T05:25:27.639Z,102042.92
2023-06-10T05:27:55.783Z,102048.33
2023-06-10T05:30:25.891Z,102052.09
2023-06-10T05:32:54.450Z,102052.09
2023-06-10T05:35:22.745Z,102053.76
2023-06-10T05:37:51.107Z,102051.64
2023-06-10T05:40:19.301Z,102039.71
2023-06-10T05:42:47.445Z,102048.06
2023-06-10T05:45:15.722Z,102051.52
2023-06-10T05:47:43.976Z,102059.13
2023-06-10T05:50:12.227Z,102050.42
2023-06-10T05:52:41.790Z,102056.44
2023-06-10T05:55:11.304Z,102041.92
2023-06-10T05:57:43.390Z,102052.50
2023-06-10T06:00:12.120Z,102049.67
2023-06-10T06:02:43.862Z,102050.22
2023-06-10T06:05:12.402Z,102046.46
2023-06-10T06:07:40.943Z,102046.84
2023-06-10T06:10:09.221Z,102052.23
2023-06-10T06:12:37.364Z,102047.20
2023-06-10T06:15:06.277Z,102053.02
2023-06-10T06:17:34.523Z,102053.41
2023-06-10T06:20:03.859Z,102061.52
2023-06-10T06:22:32.042Z,102055.52
2023-06-10T06:25:00.467Z,102055.48
2023-06-10T06:27:29.192Z,102060.63
2023-06-10T06:29:57.492Z,102059.98
2023-06-10T06:32:28.669Z,102061.80
2023-06-10T06:34:56.911Z,102063.53
2023-06-10T06:37:26.369Z,102065.23
2023-06-10T06:40:03.061Z,102059.20
2023-06-10T06:42:32.664Z,102071.25
2023-06-10T06:45:16.885Z,102070.40
2023-06-10T06:47:45.502Z,102071.00
2023-06-10T06:50:13.723Z,102069.54
2023-06-10T06:52:42.064Z,102075.66
2023-06-10T06:55:10.573Z,102075.73
2023-06-10T06:57:38.867Z,102079.88
2023-06-10T07:00:08.086Z,102086.61
2023-06-10T07:02:37.039Z,102086.52
2023-06-10T07:05:06.627Z,102089.36
2023-06-10T07:07:35.693Z,102090.75
2023-06-10T07:10:04.049Z,102092.15
2023-06-10T07:12:32.216Z,102091.42
2023-06-10T07:15:00.553Z,102090.45
2023-06-10T07:17:28.902Z,102094.88
2023-06-10T07:19:58.993Z,102095.72
2023-06-10T07:22:27.850Z,102094.10
2023-06-10T07:24:56.773Z,102101.90
2023-06-10T07:27:24.988Z,102094.37
2023-06-10T07:29:53.300Z,102092.66
2023-06-10T07:32:23.552Z,102094.45
2023-06-10T07:34:52.086Z,102091.21
2023-06-10T07:37:20.965Z,102088.02
2023-06-10T07:39:49.173Z,102096.45
2023-06-10T07:42:17.629Z,102098.81
2023-06-10T07:44:45.803Z,102092.30
2023-06-10T07:47:13.946Z,102103.88
2023-06-10T07:49:43.037Z,102104.30
2023-06-10T07:52:11.305Z,102103.59
2023-06-10T07:54:39.528Z,102106.66
2023-06-10T07:57:08.412Z,102106.16
2023-06-10T07:59:36.584Z,102110.86
2023-06-10T08:02:05.313Z,102109.31
2023-06-10T08:04:36.337Z,102112.23
2023-06-10T08:07:04.936Z,102113.87
2023-06-10T08:09:33.408Z,102117.34
2023-06-10T08:12:01.826Z,102111.53
2023-06-10T08:14:30.080Z,102110.14
2023-06-10T08:16:58.343Z,102111.30
2023-06-10T08:19:26.633Z,102109.73
2023-06-10T08:21:54.949Z,102114.36
2023-06-10T08:24:23.476Z,102108.48
2023-06-10T08:26:51.880Z,102111.57
2023-06-10T08:29:19.986Z,102114.86
2023-06-10T08:31:48.221Z,102112.31
2023-06-10T08:34:16.517Z,102110.99
2023-06-10T08:36:46.654Z,102111.30
2023-06-10T08:39:15.050Z,102109.89
2023-06-10T08:41:46.286Z,102106.91
2023-06-10T08:44:23.574Z,102109.84
2023-06-10T08:46:53.042Z,102112.62
2023-06-10T08:49:24.546Z,102112.90
2023-06-10T08:51:59.248Z,102118.90
2023-06-10T08:54:32.731Z,102115.38
2023-06-10T08:57:01.450Z,102114.28
2023-06-10T08:59:30.635Z,102121.17
2023-06-10T09:01:59.843Z,102116.94
2023-06-10T09:04:28.657Z,102119.45
2023-06-10T09:06:57.490Z,102124.05
2023-06-10T09:09:29.441Z,102123.58
2023-06-10T09:11:57.748Z,102127.63
2023-06-10T09:14:27.045Z,102130.68
2023-06-10T09:16:58.123Z,102129.69
2023-06-10T09:19:29.944Z,102121.92
2023-06-10T09:21:58.044Z,102111.90
2023-06-10T09:24:26.965Z,102111.99
2023-06-10T09:27:10.242Z,102110.24
2023-06-10T09:29:55.349Z,102109.27
2023-06-10T09:32:23.555Z,102112.61
2023-06-10T09:34:52.274Z,102105.48
2023-06-10T09:37:25.253Z,102107.27
2023-06-10T09:40:11.544Z,102104.42
2023-06-10T09:42:40.416Z,102105.79
2023-06-10T09:45:08.883Z,102111.35
2023-06-10T09:47:37.277Z,102102.84
2023-06-10T09:50:07.378Z,102105.31
2023-06-10T09:52:40.179Z,102106.73
2023-06-10T09:55:11.569Z,102085.41
2023-06-10T09:57:42.366Z,102095.77
2023-06-10T10:00:12.564Z,102108.58
2023-06-10T10:02:52.605Z,102113.35
2023-06-10T10:05:25.362Z,102110.11
2023-06-10T10:07:53.859Z,102113.67
2023-06-10T10:10:22.995Z,102109.02
2023-06-10T10:12:57.843Z,102108.06
2023-06-10T10:15:33.621Z,102106.02
2023-06-10T10:18:09.187Z,102107.45
2023-06-10T10:20:45.017Z,102104.52
2023-06-10T10:23:16.718Z,102099.50
2023-06-10T10:25:48.272Z,102107.83
2023-06-10T10:28:21.103Z,102108.41
2023-06-10T10:30:55.740Z,102105.73
2023-06-10T10:33:37.864Z,102095.77
2023-06-10T10:36:08.817Z,102099.10
2023-06-10T10:38:37.622Z,102099.92
2023-06-10T10:41:06.584Z,102093.04
2023-06-10T10:43:35.332Z,102093.74
2023-06-10T10:46:07.784Z,102095.66
2023-06-10T10:48:39.941Z,102093.45
2023-06-10T10:51:09.150Z,102091.25
2023-06-10T10:53:40.802Z,102096.39
2023-06-10T10:56:14.970Z,102093.20
2023-06-10T10:58:43.171Z,102092.53
2023-06-10T11:01:16.057Z,102086.34
2023-06-10T11:03:49.192Z,102095.19
2023-06-10T11:06:19.666Z,102094.89
2023-06-10T11:08:49.347Z,102098.99
2023-06-10T11:11:27.102Z,102079.20
2023-06-10T11:14:08.138Z,102098.63
2023-06-10T11:16:44.501Z,102093.78
2023-06-10T11:19:33.395Z,102087.09
2023-06-10T11:22:06.972Z,102089.23
2023-06-10T11:24:35.318Z,102101.73
2023-06-10T11:27:18.391Z,102096.95
2023-06-10T11:30:01.853Z,102099.06
2023-06-10T11:32:33.046Z,102095.29
2023-06-10T11:35:05.571Z,102092.09
2023-06-10T11:37:34.018Z,102089.98
2023-06-10T11:40:03.327Z,102087.88
2023-06-10T11:42:31.713Z,102095.77
2023-06-10T11:45:01.159Z,102092.17
2023-06-10T11:47:29.850Z,102089.78
2023-06-10T11:49:58.984Z,102090.25
2023-06-10T11:52:28.853Z,102090.85
2023-06-10T11:54:57.419Z,102091.47
2023-06-10T11:57:25.986Z,102089.28
2023-06-10T11:59:54.272Z,102086.42
2023-06-10T12:02:23.590Z,102088.34
2023-06-10T12:04:52.024Z,102083.39
2023-06-10T12:07:21.481Z,102081.12
2023-06-10T12:10:08.767Z,102078.74
2023-06-10T12:12:48.309Z,102080.25
2023-06-10T12:15:26.625Z,102077.42
2023-06-10T12:17:54.872Z,102067.52
2023-06-10T12:20:28.976Z,102080.50
2023-06-10T12:22:57.293Z,102082.52
2023-06-10T12:25:27.999Z,102083.08
2023-06-10T12:27:59.366Z,102083.05
2023-06-10T12:30:28.783Z,102085.15
2023-06-10T12:32:57.949Z,102091.05
2023-06-10T12:35:29.756Z,102083.01
2023-06-10T12:38:05.689Z,102076.71
2023-06-10T12:40:37.172Z,102083.00
2023-06-10T12:43:05.574Z,102078.55
2023-06-10T12:45:35.597Z,102075.14
2023-06-10T12:48:13.873Z,102067.56
2023-06-10T12:50:43.739Z,102062.88
2023-06-10T12:53:12.870Z,102063.86
2023-06-10T12:55:41.183Z,102061.89
2023-06-10T12:58:09.623Z,102071.88
2023-06-10T13:00:38.062Z,102072.50
2023-06-10T13:03:08.000Z,102064.86
2023-06-10T13:05:41.072Z,102070.72
2023-06-10T13:08:13.220Z,102067.54
2023-06-10T13:10:41.892Z,102063.08
2023-06-10T13:13:11.209Z,102062.01
2023-06-10T13:15:43.771Z,102054.40
2023-06-10T13:18:12.482Z,102053.91
2023-06-10T13:20:40.972Z,102051.13
2023-06-10T13:23:09.251Z,102054.27
2023-06-10T13:25:37.424Z,102055.35
2023-06-10T13:28:05.662Z,102051.20
2023-06-10T13:30:33.934Z,102046.53
2023-06-10T13:33:02.699Z,102045.64
2023-06-10T13:35:30.898Z,102051.92
2023-06-10T13:37:59.073Z,102048.20
2023-06-10T13:40:27.225Z,102049.77
2023-06-10T13:42:55.495Z,102049.71
2023-06-10T13:45:23.806Z,102055.70
2023-06-10T13:47:52.446Z,102055.48
2023-06-10T13:50:20.997Z,102052.40
2023-06-10T13:52:49.138Z,102056.04
2023-06-10T13:55:18.872Z,102056.73
2023-06-10T13:57:47.001Z,102047.42
2023-06-10T14:00:15.476Z,102051.23
2023-06-10T14:02:43.940Z,102048.73
2023-06-10T14:05:12.412Z,102054.91
2023-06-10T14:07:41.976Z,102050.33
2023-06-10T14:10:11.089Z,102043.91
2023-06-10T14:12:39.327Z,102044.95
2023-06-10T14:15:08.709Z,102041.25
2023-06-10T14:17:37.170Z,102042.33
2023-06-10T14:20:06.727Z,102044.71
2023-06-10T14:22:34.939Z,102041.90
2023-06-10T14:25:03.088Z,102040.85
2023-06-10T14:27:31.264Z,102044.10
2023-06-10T14:29:59.426Z,102036.40
2023-06-10T14:32:27.854Z,102036.95
2023-06-10T14:34:56.389Z,102032.48
2023-06-10T14:37:24.629Z,102036.85
2023-06-10T14:39:52.862Z,102036.19
2023-06-10T14:42:20.981Z,102036.95
2023-06-10T14:44:49.385Z,102030.92
2023-06-10T14:47:17.692Z,102031.62
2023-06-10T14:49:46.858Z,102024.02
2023-06-10T14:52:15.178Z,102028.83
2023-06-10T14:54:43.367Z,102028.38
2023-06-10T14:57:11.947Z,102021.66
2023-06-10T14:59:40.163Z,102023.38
2023-06-10T15:02:08.443Z,102022.07
2023-06-10T15:04:36.684Z,102026.52
2023-06-10T15:07:05.010Z,102026.85
2023-06-10T15:09:33.318Z,102024.82
2023-06-10T15:12:01.955Z,102025.61
2023-06-10T15:14:30.193Z,102027.28
2023-06-10T15:17:00.455Z,102020.36
2023-06-10T15:19:28.744Z,102021.97
2023-06-10T15:21:56.917Z,102020.81
2023-06-10T15:24:25.184Z,102024.54
2023-06-10T15:26:53.325Z,102025.34
2023-06-10T15:29:21.517Z,102023.23
2023-06-10T15:31:49.716Z,102025.23
2023-06-10T15:34:18.018Z,102030.58
2023-06-10T15:36:46.195Z,102025.83
2023-06-10T15:39:14.517Z,102026.73
2023-06-10T15:41:42.740Z,102034.26
2023-06-10T15:44:10.935Z,102034.94
2023-06-10T15:46:39.236Z,102034.89
2023-06-10T15:49:07.433Z,102032.34
2023-06-10T15:51:35.688Z,102034.84
2023-06-10T15:54:04.314Z,102032.20
2023-06-10T15:56:33.886Z,102034.50
2023-06-10T15:59:01.996Z,102038.15
2023-06-10T16:01:30.186Z,102038.27
2023-06-10T16:03:58.466Z,102036.30
2023-06-10T16:06:26.653Z,102037.48
2023-06-10T16:08:54.905Z,102038.77
2023-06-10T16:11:24.166Z,102043.62
2023-06-10T16:13:52.299Z,102035.45
2023-06-10T16:16:20.532Z,102032.84
2023-06-10T16:18:48.771Z,102042.86
2023-06-10T16:21:16.929Z,102044.78
2023-06-10T16:23:45.097Z,102051.84
2023-06-10T16:26:13.505Z,102049.53
2023-06-10T16:28:41.747Z,102053.95
2023-06-10T16:31:10.057Z,102050.72
2023-06-10T16:33:38.292Z,102057.89
2023-06-10T16:36:06.937Z,102060.79
2023-06-10T16:38:35.086Z,102059.86
2023-06-10T16:41:03.427Z,102061.28
2023-06-10T16:43:31.639Z,102065.27
2023-06-10T16:45:59.980Z,102066.11
2023-06-10T16:48:28.333Z,102072.06
2023-06-10T16:50:56.972Z,102059.55
2023-06-10T16:53:25.329Z,102071.94
2023-06-10T16:55:53.609Z,102068.34
2023-06-10T16:58:22.157Z,102068.36
2023-06-10T17:00:51.273Z,102066.16
2023-06-10T17:03:19.585Z,102070.18
2023-06-10T17:05:47.916Z,102073.19
2023-06-10T17:08:16.168Z,102063.95
2023-06-10T17:10:44.560Z,102078.89
2023-06-10T17:13:12.790Z,102074.38
2023-06-10T17:15:41.451Z,102068.63
2023-06-10T17:18:10.040Z,102083.45
2023-06-10T17:20:38.241Z,102082.61
2023-06-10T17:23:07.433Z,102085.68
2023-06-10T17:25:37.324Z,102084.17
2023-06-10T17:28:05.659Z,102092.12
2023-06-10T17:30:33.802Z,102081.55
2023-06-10T17:33:01.988Z,102100.79
2023-06-10T17:35:30.626Z,102098.42
2023-06-10T17:37:58.920Z,102102.56
2023-06-10T17:40:27.231Z,102103.70
2023-06-10T17:42:55.661Z,102106.02
2023-06-10T17:45:24.196Z,102108.38
2023-06-10T17:47:52.640Z,102106.42
2023-06-10T17:50:20.992Z,102110.35
2023-06-10T17:52:49.255Z,102113.70
2023-06-10T17:55:17.423Z,102116.18
2023-06-10T17:57:45.584Z,102116.08
2023-06-10T18:00:14.260Z,102123.70
2023-06-10T18:02:42.856Z,102121.69
2023-06-10T18:05:12.222Z,102126.86
2023-06-10T18:07:40.930Z,102123.48
2023-06-10T18:10:10.528Z,102127.22
2023-06-10T18:12:39.357Z,102134.09
2023-06-10T18:15:08.437Z,102132.18
2023-06-10T18:17:37.124Z,102141.79
2023-06-10T18:20:06.151Z,102143.91
2023-06-10T18:22:34.709Z,102145.41
2023-06-10T18:25:06.132Z,102142.92
2023-06-10T18:27:35.382Z,102143.01
2023-06-10T18:30:03.848Z,102148.45
2023-06-10T18:32:32.218Z,102151.92
2023-06-10T18:35:00.494Z,102150.63
2023-06-10T18:37:28.820Z,102158.73
2023-06-10T18:39:57.407Z,102147.70
2023-06-10T18:42:25.653Z,102158.08
2023-06-10T18:44:53.915Z,102166.70
2023-06-10T18:47:22.476Z,102172.30
2023-06-10T18:49:50.851Z,102177.08
2023-06-10T18:52:19.079Z,102177.31
2023-06-10T18:54:47.238Z,102173.15
2023-06-10T18:57:15.698Z,102166.48
2023-06-10T18:59:44.417Z,102177.37
2023-06-10T19:02:12.816Z,102177.85
2023-06-10T19:04:41.176Z,102186.41
2023-06-10T19:07:09.470Z,102187.95
2023-06-10T19:09:37.710Z,102191.61
2023-06-10T19:12:06.898Z,102179.94
2023-06-10T19:14:35.183Z,102196.48
2023-06-10T19:17:03.641Z,102200.70
2023-06-10T19:19:32.255Z,102207.07
2023-06-10T19:22:00.713Z,102209.48
2023-06-10T19:24:29.172Z,102214.09
2023-06-10T19:26:57.729Z,102217.52
2023-06-10T19:29:26.148Z,102220.02
2023-06-10T19:31:54.522Z,102222.89
2023-06-10T19:34:22.965Z,102224.92
2023-06-10T19:36:51.185Z,102227.29
2023-06-10T19:39:19.744Z,102227.66
2023-06-10T19:41:47.940Z,102200.97
2023-06-10T19:44:16.196Z,102235.17
2023-06-10T19:46:47.576Z,102232.68
2023-06-10T19:49:16.640Z,102237.70
2023-06-10T19:51:48.999Z,102234.39
2023-06-10T19:54:17.259Z,102235.30
2023-06-10T19:56:45.756Z,102236.14
2023-06-10T19:59:14.260Z,102236.35
2023-06-10T20:01:42.944Z,102240.53
2023-06-10T20:04:11.240Z,102241.08
2023-06-10T20:06:40.155Z,102228.58
2023-06-10T20:09:08.412Z,102246.88
2023-06-10T20:11:36.624Z,102250.32
2023-06-10T20:14:04.775Z,102253.83
2023-06-10T20:16:33.004Z,102251.67
2023-06-10T20:19:04.056Z,102258.73
2023-06-10T20:21:32.295Z,102259.32
2023-06-10T20:24:00.569Z,102262.77
2023-06-10T20:26:28.996Z,102260.30
2023-06-10T20:28:57.393Z,102264.06
2023-06-10T20:31:27.582Z,102265.02
2023-06-10T20:33:56.415Z,102267.86
2023-06-10T20:36:24.912Z,102271.35
2023-06-10T20:38:53.228Z,102275.20
2023-06-10T20:41:22.848Z,102277.66
2023-06-10T20:43:51.176Z,102281.03
2023-06-10T20:46:19.397Z,102278.92
2023-06-10T20:48:47.830Z,102280.02
2023-06-10T20:51:16.107Z,102278.00
2023-06-10T20:53:44.427Z,102278.37
2023-06-10T20:56:12.728Z,102283.41
2023-06-10T20:58:41.682Z,102279.35
2023-06-10T21:01:09.926Z,102259.69
2023-06-10T21:03:38.189Z,102283.12
2023-06-10T21:06:07.171Z,102286.00
2023-06-10T21:08:35.378Z,102283.89
2023-06-10T21:11:04.026Z,102283.42
2023-06-10T21:13:32.260Z,102282.77
2023-06-10T21:16:00.659Z,102284.94
2023-06-10T21:18:29.431Z,102288.80
2023-06-10T21:20:57.970Z,102289.84
2023-06-10T21:23:26.525Z,102293.48
2023-06-10T21:25:54.791Z,102296.30
2023-06-10T21:28:22.937Z,102290.48
2023-06-10T21:30:51.192Z,102294.86
2023-06-10T21:33:20.911Z,102284.67
2023-06-10T21:35:49.069Z,102300.59
2023-06-10T21:38:17.291Z,102299.05
2023-06-10T21:40:45.758Z,102301.98
2023-06-10T21:43:14.272Z,102300.10
2023-06-10T21:45:42.436Z,102299.55
2023-06-10T21:48:11.759Z,102300.50
2023-06-10T21:50:39.976Z,102300.33
2023-06-10T21:53:08.109Z,102300.50
2023-06-10T21:55:36.299Z,102303.49
2023-06-10T21:58:04.545Z,102303.21
2023-06-10T22:00:32.788Z,102309.42
2023-06-10T22:03:01.041Z,102309.08
2023-06-10T22:05:29.485Z,102313.80
2023-06-10T22:07:57.734Z,102309.61
2023-06-10T22:10:27.651Z,102310.70
2023-06-10T22:12:56.380Z,102310.14
2023-06-10T22:15:24.668Z,102316.23
2023-06-10T22:17:53.092Z,102313.17
2023-06-10T22:20:21.666Z,102315.53
2023-06-10T22:22:49.835Z,102316.04
2023-06-10T22:25:18.006Z,102314.88
2023-06-10T22:27:47.033Z,102313.95
2023-06-10T22:30:16.299Z,102311.09
2023-06-10T22:32:44.665Z,102296.79
2023-06-10T22:35:13.175Z,102299.38
2023-06-10T22:37:41.573Z,102311.13
2023-06-10T22:40:10.238Z,102310.52
2023-06-10T22:42:38.946Z,102310.29
2023-06-10T22:45:08.238Z,102307.06
2023-06-10T22:47:36.870Z,102306.52
2023-06-10T22:50:06.498Z,102303.52
2023-06-10T22:52:34.767Z,102304.84
2023-06-10T22:55:03.523Z,102300.44
2023-06-10T22:57:31.929Z,102299.13
2023-06-10T23:00:00.558Z,102297.76
2023-06-10T23:02:29.090Z,102298.66
2023-06-10T23:04:57.554Z,102294.55
2023-06-10T23:07:25.826Z,102294.15
2023-06-10T23:09:54.038Z,102297.94
2023-06-10T23:12:22.256Z,102297.16
2023-06-10T23:14:50.612Z,102299.98
2023-06-10T23:17:19.193Z,102297.27
2023-06-10T23:19:48.328Z,102295.08
2023-06-10T23:22:19.081Z,102295.68
2023-06-10T23:24:48.737Z,102293.95
2023-06-10T23:27:21.378Z,102293.29
2023-06-10T23:29:58.671Z,102293.63
2023-06-10T23:32:28.559Z,102294.83
2023-06-10T23:34:57.048Z,102296.40
2023-06-10T23:37:26.845Z,102293.27
2023-06-10T23:39:55.377Z,102298.48
2023-06-10T23:42:25.821Z,102295.59
2023-06-10T23:44:54.074Z,102291.75
2023-06-10T23:47:22.527Z,102287.15
2023-06-10T23:49:50.830Z,102291.35
2023-06-10T23:52:21.768Z,102290.58
2023-06-10T23:54:50.806Z,102290.70
2023-06-10T23:57:18.951Z,102281.96
2023-06-10T23:59:47.142Z,102288.47
